Time;durP1;ratioP1;P1;durP2;ratioP2;P2;SDS_P1;SDS_P2;PMS_P1;PMS_P2;Temp;Humidity;BMP_temperature;BMP_pressure;BME280_temperature;BME280_humidity;BME280_pressure;Samples;Min_cycle;Max_cycle;Signal;HPM_P1;HPM_P2
2021/07/02 00:01:25;;;;;;;46.40;29.98;;;16.10;99.90;;;;;;3631418;39;21086;-38
2021/07/02 00:04:06;;;;;;;41.80;28.58;;;16.00;99.90;;;;;;3641779;39;20609;-39
2021/07/02 00:06:45;;;;;;;45.08;28.13;;;15.90;99.90;;;;;;3673303;39;20987;-38
2021/07/02 00:09:24;;;;;;;45.63;28.95;;;15.90;99.90;;;;;;3642489;39;20681;-40
2021/07/02 00:12:05;;;;;;;36.33;27.10;;;16.00;99.90;;;;;;3633027;39;20834;-39
2021/07/02 00:14:44;;;;;;;44.20;24.92;;;16.00;99.90;;;;;;3633541;39;20696;-41
2021/07/02 00:17:24;;;;;;;37.45;27.27;;;16.00;99.90;;;;;;3639170;39;20408;-37
2021/07/02 00:20:06;;;;;;;36.33;25.33;;;16.30;99.90;;;;;;3631399;39;20594;-37
2021/07/02 00:22:45;;;;;;;33.90;25.17;;;16.20;99.90;;;;;;3621771;39;20856;-41
2021/07/02 00:25:25;;;;;;;29.98;22.67;;;16.20;99.90;;;;;;3642038;39;20621;-38
2021/07/02 00:28:05;;;;;;;33.58;22.20;;;16.10;99.90;;;;;;3619587;39;20689;-39
2021/07/02 00:30:44;;;;;;;29.15;22.65;;;16.20;99.90;;;;;;3638622;39;20593;-36
2021/07/02 00:33:24;;;;;;;33.38;24.15;;;16.30;99.90;;;;;;3597104;39;21037;-38
2021/07/02 00:36:05;;;;;;;32.05;21.85;;;16.20;99.90;;;;;;3637725;39;20597;-39
2021/07/02 00:38:44;;;;;;;33.55;21.25;;;16.30;99.90;;;;;;3626986;39;20595;-37
2021/07/02 00:41:24;;;;;;;28.50;21.70;;;16.20;99.90;;;;;;3626974;39;20683;-38
2021/07/02 00:44:04;;;;;;;34.17;24.02;;;16.40;99.90;;;;;;3626975;39;20610;-38
2021/07/02 00:46:43;;;;;;;26.75;21.45;;;16.50;99.90;;;;;;3638148;39;20673;-37
2021/07/02 00:49:23;;;;;;;30.65;24.02;;;16.30;99.90;;;;;;3637458;39;20620;-38
2021/07/02 00:52:04;;;;;;;27.05;21.58;;;16.30;99.90;;;;;;3627213;39;20658;-40
2021/07/02 00:54:46;;;;;;;37.47;23.88;;;16.10;99.90;;;;;;3627111;39;20854;-38
2021/07/02 00:57:26;;;;;;;26.63;21.50;;;16.10;99.90;;;;;;3637471;39;20592;-39
2021/07/02 01:00:08;;;;;;;49.85;26.42;;;16.20;99.90;;;;;;3637420;39;20597;-41
2021/07/02 01:02:48;;;;;;;40.97;25.60;;;16.20;99.90;;;;;;3637336;39;20584;-36
2021/07/02 01:05:28;;;;;;;35.80;25.00;;;16.40;99.90;;;;;;3637581;39;20698;-38
2021/07/02 01:08:09;;;;;;;49.25;25.90;;;16.40;99.90;;;;;;3637434;39;20597;-38
2021/07/02 01:10:48;;;;;;;39.00;25.48;;;16.30;99.90;;;;;;3637397;39;20693;-39
2021/07/02 01:13:28;;;;;;;35.08;23.60;;;16.40;99.90;;;;;;3637109;39;20621;-41
2021/07/02 01:16:09;;;;;;;42.40;23.25;;;16.40;99.90;;;;;;3637165;39;20931;-38
2021/07/02 01:18:49;;;;;;;37.42;23.80;;;16.10;99.90;;;;;;3627008;39;20594;-39
2021/07/02 01:21:29;;;;;;;33.58;24.45;;;16.20;99.90;;;;;;3637087;39;20996;-41
2021/07/02 01:24:08;;;;;;;36.85;24.85;;;16.10;99.90;;;;;;3636929;39;20701;-36
2021/07/02 01:26:49;;;;;;;32.88;21.48;;;16.10;99.90;;;;;;3637085;39;20951;-39
2021/07/02 01:29:30;;;;;;;34.92;22.45;;;15.90;99.90;;;;;;3637020;39;20597;-38
2021/07/02 01:32:11;;;;;;;34.70;23.83;;;16.00;99.90;;;;;;3637023;39;20612;-39
2021/07/02 01:34:51;;;;;;;35.42;23.70;;;16.10;99.90;;;;;;3647186;39;21106;-39
2021/07/02 01:37:31;;;;;;;49.42;29.60;;;15.90;99.90;;;;;;3606085;39;20605;-38
2021/07/02 01:40:13;;;;;;;35.92;25.98;;;16.00;99.90;;;;;;3626576;39;20671;-39
2021/07/02 01:42:54;;;;;;;38.85;26.90;;;15.90;99.90;;;;;;3637085;39;20585;-38
2021/07/02 01:45:35;;;;;;;37.60;25.83;;;16.00;99.90;;;;;;3627333;39;20905;-38
2021/07/02 01:48:15;;;;;;;38.22;27.58;;;16.00;99.90;;;;;;3637238;39;20681;-40
2021/07/02 01:50:55;;;;;;;35.95;25.00;;;16.20;99.90;;;;;;3637473;39;21043;-41
2021/07/02 01:53:36;;;;;;;42.63;29.77;;;16.20;99.90;;;;;;3637336;39;20621;-38
2021/07/02 01:56:16;;;;;;;36.00;25.90;;;15.90;99.90;;;;;;3626753;39;20684;-38
2021/07/02 01:59:00;;;;;;;39.20;26.20;;;15.90;99.90;;;;;;3626917;39;20929;-38
2021/07/02 02:01:43;;;;;;;40.22;26.33;;;15.90;99.90;;;;;;3637160;39;21088;-39
2021/07/02 02:04:28;;;;;;;42.03;27.67;;;15.90;99.90;;;;;;3658014;39;20686;-37
2021/07/02 02:07:08;;;;;;;41.17;26.73;;;16.10;99.90;;;;;;3637038;39;20601;-36
2021/07/02 02:09:51;;;;;;;41.40;25.45;;;15.90;99.90;;;;;;3626735;39;20675;-38
2021/07/02 02:12:30;;;;;;;46.15;28.40;;;15.90;99.90;;;;;;3626613;39;20683;-36
2021/07/02 02:15:12;;;;;;;49.85;29.05;;;15.80;99.90;;;;;;3637023;39;20608;-37
2021/07/02 02:17:55;;;;;;;49.95;28.40;;;15.90;99.90;;;;;;3626558;39;20591;-38
2021/07/02 02:20:36;;;;;;;37.30;26.58;;;16.00;99.90;;;;;;3626953;39;20671;-36
2021/07/02 02:23:16;;;;;;;40.78;26.52;;;15.90;99.90;;;;;;3657680;39;20594;-38
2021/07/02 02:25:56;;;;;;;42.38;26.38;;;15.90;99.90;;;;;;3626666;39;20673;-37
2021/07/02 02:28:39;;;;;;;34.67;24.67;;;16.00;99.90;;;;;;3639587;39;20637;-38
2021/07/02 02:31:19;;;;;;;41.58;26.30;;;16.10;99.90;;;;;;3631255;39;20602;-36
2021/07/02 02:34:03;;;;;;;35.75;25.80;;;16.10;99.90;;;;;;3637433;39;20612;-38
2021/07/02 02:36:45;;;;;;;36.70;25.38;;;16.00;99.90;;;;;;3637198;39;20597;-36
2021/07/02 02:39:24;;;;;;;39.20;26.30;;;16.20;99.90;;;;;;3636909;39;21089;-37
2021/07/02 02:42:05;;;;;;;30.75;24.77;;;16.00;99.90;;;;;;3636907;39;20677;-37
2021/07/02 02:44:44;;;;;;;38.63;24.20;;;15.90;99.90;;;;;;3626631;39;21107;-40
2021/07/02 02:47:24;;;;;;;34.40;24.10;;;15.90;99.90;;;;;;3627640;39;20590;-37
2021/07/02 02:50:05;;;;;;;31.75;23.48;;;16.10;99.90;;;;;;3637440;39;20854;-37
2021/07/02 02:52:45;;;;;;;42.60;25.58;;;16.20;99.90;;;;;;3637098;39;20581;-39
2021/07/02 02:55:25;;;;;;;32.60;24.73;;;16.30;99.90;;;;;;3658021;39;20686;-37
2021/07/02 02:58:06;;;;;;;37.70;22.85;;;16.30;99.90;;;;;;3633097;39;20952;-39
2021/07/02 03:00:46;;;;;;;37.72;24.20;;;16.00;99.90;;;;;;3648627;39;20683;-38
2021/07/02 03:03:26;;;;;;;36.40;24.63;;;16.00;99.90;;;;;;3647458;39;20699;-37
2021/07/02 03:06:06;;;;;;;37.55;24.30;;;16.00;99.90;;;;;;3626754;39;20602;-38
2021/07/02 03:08:45;;;;;;;36.10;23.42;;;16.10;99.90;;;;;;3637237;39;20932;-37
2021/07/02 03:11:25;;;;;;;33.40;24.00;;;16.10;99.90;;;;;;3627643;39;20906;-38
2021/07/02 03:14:07;;;;;;;41.17;24.08;;;16.10;99.90;;;;;;3637215;39;21012;-41
2021/07/02 03:16:48;;;;;;;39.17;24.25;;;16.20;99.90;;;;;;3637237;39;20585;-38
2021/07/02 03:19:28;;;;;;;42.80;23.92;;;16.30;99.90;;;;;;3626875;39;20586;-41
2021/07/02 03:22:09;;;;;;;38.50;25.40;;;16.40;99.90;;;;;;3637235;39;20669;-39
2021/07/02 03:24:52;;;;;;;36.13;22.73;;;16.40;99.90;;;;;;3637175;39;20596;-39
2021/07/02 03:27:34;;;;;;;35.92;24.40;;;16.40;99.90;;;;;;3637295;39;20585;-38
2021/07/02 03:30:15;;;;;;;37.97;25.20;;;16.30;99.90;;;;;;3626764;39;20683;-38
2021/07/02 03:32:55;;;;;;;39.85;25.17;;;16.20;99.90;;;;;;3596535;39;20599;-39
2021/07/02 03:35:35;;;;;;;39.53;26.42;;;16.20;99.90;;;;;;3637643;39;20600;-37
2021/07/02 03:38:16;;;;;;;39.65;26.85;;;16.40;99.90;;;;;;3637196;39;20995;-38
2021/07/02 03:40:56;;;;;;;35.40;23.98;;;16.40;99.90;;;;;;3637479;39;20601;-38
2021/07/02 03:43:36;;;;;;;34.85;25.65;;;16.40;99.90;;;;;;3646820;39;20724;-37
2021/07/02 03:46:15;;;;;;;45.22;25.98;;;16.30;99.90;;;;;;3616845;39;21123;-39
2021/07/02 03:48:55;;;;;;;31.75;23.27;;;16.30;99.90;;;;;;3627473;39;20595;-36
2021/07/02 03:51:35;;;;;;;40.50;24.60;;;16.20;99.90;;;;;;3637091;39;20605;-38
2021/07/02 03:54:15;;;;;;;44.42;23.92;;;15.90;99.90;;;;;;3637613;39;20616;-38
2021/07/02 03:57:13;;;;;;;34.47;23.25;;;16.00;99.90;;;;;;3636947;39;20600;-39
2021/07/02 03:59:53;;;;;;;38.33;24.08;;;16.00;99.90;;;;;;3637092;39;20589;-39
2021/07/02 04:02:32;;;;;;;33.90;24.67;;;16.00;99.90;;;;;;3637198;39;20692;-40
2021/07/02 04:05:12;;;;;;;40.70;23.77;;;16.00;99.90;;;;;;3626466;39;20618;-36
2021/07/02 04:07:52;;;;;;;37.35;22.38;;;16.20;99.90;;;;;;3637239;39;20601;-37
2021/07/02 04:10:32;;;;;;;38.00;22.83;;;16.30;99.90;;;;;;3626684;39;20687;-39
2021/07/02 04:13:12;;;;;;;34.65;21.65;;;16.10;99.90;;;;;;3596271;39;20603;-36
2021/07/02 04:15:53;;;;;;;29.60;21.42;;;16.20;99.90;;;;;;3637172;39;20597;-38
2021/07/02 04:18:32;;;;;;;32.00;22.55;;;16.00;99.90;;;;;;3658024;39;20677;-40
2021/07/02 04:21:12;;;;;;;30.55;19.67;;;16.00;99.90;;;;;;3658027;39;20939;-39
2021/07/02 04:23:52;;;;;;;33.53;21.98;;;15.90;99.90;;;;;;3637142;39;20616;-38
2021/07/02 04:26:32;;;;;;;33.28;20.45;;;15.90;99.90;;;;;;3637269;39;20593;-37
2021/07/02 04:29:12;;;;;;;33.75;20.55;;;16.00;99.90;;;;;;3647458;39;20599;-37
2021/07/02 04:31:39;;;;;;;34.05;21.90;;;16.10;99.90;;;;;;3647327;39;20226;-36
2021/07/02 04:34:19;;;;;;;29.73;20.02;;;16.10;99.90;;;;;;3637262;39;20716;-37
2021/07/02 04:36:58;;;;;;;25.55;20.30;;;16.20;99.90;;;;;;3637568;39;20681;-38
2021/07/02 04:39:38;;;;;;;31.25;21.58;;;16.30;99.90;;;;;;3637234;39;21073;-38
2021/07/02 04:42:18;;;;;;;31.73;21.85;;;16.40;99.90;;;;;;3627138;39;20672;-37
2021/07/02 04:44:58;;;;;;;32.55;20.90;;;16.50;99.90;;;;;;3636973;39;21116;-36
2021/07/02 04:47:38;;;;;;;32.08;22.63;;;16.50;99.90;;;;;;3637346;39;20597;-38
2021/07/02 04:50:17;;;;;;;33.38;19.88;;;16.50;99.90;;;;;;3626888;39;20960;-41
2021/07/02 04:52:57;;;;;;;27.50;19.90;;;16.50;99.90;;;;;;3637628;39;20593;-36
2021/07/02 04:55:37;;;;;;;36.33;21.58;;;16.60;99.90;;;;;;3637129;39;20947;-38
2021/07/02 04:58:18;;;;;;;32.45;21.67;;;16.70;99.90;;;;;;3637182;39;20593;-38
2021/07/02 05:00:56;;;;;;;33.00;21.77;;;16.70;99.90;;;;;;3637023;39;20931;-37
2021/07/02 05:03:36;;;;;;;22.77;17.77;;;16.70;99.90;;;;;;3637179;39;20720;-38
2021/07/02 05:06:16;;;;;;;33.47;21.05;;;16.50;99.90;;;;;;3637108;39;20596;-38
2021/07/02 05:08:56;;;;;;;25.45;20.17;;;16.70;99.90;;;;;;3658840;39;20987;-39
2021/07/02 05:11:36;;;;;;;29.02;20.80;;;16.30;99.90;;;;;;3596349;39;20606;-40
2021/07/02 05:14:16;;;;;;;33.55;21.77;;;16.40;99.90;;;;;;3626714;39;20623;-39
2021/07/02 05:17:07;;;;;;;30.75;22.20;;;16.50;99.90;;;;;;3626821;39;20676;-37
2021/07/02 05:19:47;;;;;;;28.67;19.08;;;16.50;99.90;;;;;;3637138;39;20601;-36
2021/07/02 05:22:27;;;;;;;30.20;19.83;;;16.40;99.90;;;;;;3637803;39;20593;-39
2021/07/02 05:25:08;;;;;;;22.35;19.40;;;16.50;99.90;;;;;;3637653;39;21011;-38
2021/07/02 05:27:46;;;;;;;25.58;21.17;;;16.40;99.90;;;;;;3626936;39;20683;-40
2021/07/02 05:30:27;;;;;;;27.70;21.88;;;16.10;99.90;;;;;;3637395;39;20983;-39
2021/07/02 05:33:06;;;;;;;31.95;21.77;;;16.30;99.90;;;;;;3627076;39;20695;-36
2021/07/02 05:35:46;;;;;;;31.08;20.52;;;16.20;99.90;;;;;;3626769;39;20606;-38
2021/07/02 05:38:25;;;;;;;33.60;21.27;;;16.10;99.90;;;;;;3638429;39;20601;-38
2021/07/02 05:41:05;;;;;;;31.05;22.35;;;16.20;99.90;;;;;;3626957;39;20594;-39
2021/07/02 05:43:46;;;;;;;30.77;21.65;;;16.50;99.90;;;;;;3659781;39;21008;-40
2021/07/02 05:46:25;;;;;;;30.92;20.55;;;16.30;99.90;;;;;;3661302;39;20818;-42
2021/07/02 05:49:05;;;;;;;28.92;21.77;;;16.40;99.90;;;;;;3661210;39;20601;-37
2021/07/02 05:51:44;;;;;;;27.45;20.40;;;16.50;99.90;;;;;;3638389;39;20685;-39
2021/07/02 05:54:24;;;;;;;27.08;20.45;;;16.70;99.90;;;;;;3626563;39;20602;-38
2021/07/02 05:57:05;;;;;;;23.55;17.58;;;16.60;99.90;;;;;;3603685;39;20606;-38
2021/07/02 05:59:44;;;;;;;23.63;19.00;;;16.40;99.90;;;;;;3636407;39;20969;-39
2021/07/02 06:02:24;;;;;;;26.85;21.75;;;16.50;99.90;;;;;;3656557;39;20590;-38
2021/07/02 06:05:04;;;;;;;28.92;21.60;;;16.60;99.90;;;;;;3625522;39;20718;-36
2021/07/02 06:07:46;;;;;;;28.50;20.63;;;16.60;99.90;;;;;;3626936;39;20687;-39
2021/07/02 06:10:26;;;;;;;26.23;20.70;;;16.70;99.90;;;;;;3637174;39;21008;-39
2021/07/02 06:13:06;;;;;;;23.33;18.65;;;16.90;99.90;;;;;;3637294;39;20946;-37
2021/07/02 06:15:46;;;;;;;25.67;18.52;;;16.60;99.90;;;;;;3637097;39;20600;-39
2021/07/02 06:18:26;;;;;;;23.90;19.35;;;16.50;99.90;;;;;;3637311;39;21004;-39
2021/07/02 06:21:05;;;;;;;21.00;18.83;;;16.40;99.90;;;;;;3637347;39;20698;-42
2021/07/02 06:23:45;;;;;;;28.13;21.42;;;16.60;99.90;;;;;;3638010;39;20871;-37
2021/07/02 06:26:25;;;;;;;30.25;21.38;;;16.80;99.90;;;;;;3637523;39;21082;-36
2021/07/02 06:29:05;;;;;;;31.23;23.40;;;17.00;99.90;;;;;;3637675;39;20609;-38
2021/07/02 06:31:45;;;;;;;37.92;25.60;;;17.10;99.90;;;;;;3626903;39;20602;-37
2021/07/02 06:34:24;;;;;;;35.33;25.02;;;17.10;99.90;;;;;;3627278;39;20626;-38
2021/07/02 06:37:05;;;;;;;35.63;25.35;;;16.90;99.90;;;;;;3637402;39;21092;-39
2021/07/02 06:39:45;;;;;;;35.55;28.52;;;16.90;99.90;;;;;;3637801;39;20621;-37
2021/07/02 06:42:24;;;;;;;31.85;26.77;;;16.80;99.90;;;;;;3606654;39;21057;-36
2021/07/02 06:45:12;;;;;;;43.20;29.88;;;16.80;99.90;;;;;;3635014;39;20697;-38
2021/07/02 06:47:56;;;;;;;38.10;28.05;;;16.60;99.90;;;;;;3637509;39;20604;-38
2021/07/02 06:50:38;;;;;;;43.22;30.52;;;16.50;99.90;;;;;;3648527;39;20610;-41
2021/07/02 06:53:19;;;;;;;44.08;29.48;;;16.30;99.90;;;;;;3619113;39;20596;-39
2021/07/02 06:55:59;;;;;;;44.03;28.98;;;16.30;99.90;;;;;;3645145;39;21001;-38
2021/07/02 06:58:39;;;;;;;45.28;28.42;;;16.50;99.90;;;;;;3639573;39;20592;-39
2021/07/02 07:01:18;;;;;;;38.67;28.23;;;16.60;99.90;;;;;;3638152;39;20979;-38
2021/07/02 07:03:58;;;;;;;40.38;27.90;;;16.20;99.90;;;;;;3647699;39;20687;-41
2021/07/02 07:06:38;;;;;;;38.35;26.15;;;16.10;99.90;;;;;;3620851;39;20608;-41
2021/07/02 07:09:18;;;;;;;35.35;27.08;;;16.10;99.90;;;;;;3632707;39;20691;-39
2021/07/02 07:11:58;;;;;;;34.17;25.10;;;16.30;99.90;;;;;;3630017;39;20602;-37
2021/07/02 07:14:38;;;;;;;35.72;24.25;;;16.40;99.90;;;;;;3622525;39;20623;-36
2021/07/02 07:17:17;;;;;;;34.85;23.60;;;16.70;99.90;;;;;;3640952;39;20605;-38
2021/07/02 07:19:57;;;;;;;34.85;25.52;;;16.70;99.90;;;;;;3640502;39;20697;-42
2021/07/02 07:22:37;;;;;;;33.20;24.00;;;16.80;99.90;;;;;;3631949;39;20595;-38
2021/07/02 07:25:20;;;;;;;28.63;22.70;;;16.80;99.90;;;;;;3661126;39;20621;-38
2021/07/02 07:28:00;;;;;;;33.13;21.30;;;16.90;99.90;;;;;;3632150;39;20583;-40
2021/07/02 07:30:39;;;;;;;30.77;20.98;;;16.90;99.90;;;;;;3640867;39;20601;-45
2021/07/02 07:33:19;;;;;;;29.40;20.02;;;17.00;99.90;;;;;;3631037;39;20598;-40
2021/07/02 07:35:59;;;;;;;25.45;17.67;;;16.90;99.90;;;;;;3630421;39;20595;-38
2021/07/02 07:38:39;;;;;;;19.48;15.63;;;16.90;99.90;;;;;;3620038;39;20604;-38
2021/07/02 07:41:20;;;;;;;27.60;17.27;;;17.10;99.90;;;;;;3631416;39;20679;-38
2021/07/02 07:44:00;;;;;;;24.88;17.20;;;17.10;99.90;;;;;;3630885;39;20606;-38
2021/07/02 07:46:40;;;;;;;28.38;18.52;;;17.30;99.90;;;;;;3630050;39;20860;-40
2021/07/02 07:49:20;;;;;;;20.52;16.63;;;17.40;99.90;;;;;;3640793;39;20995;-40
2021/07/02 07:52:10;;;;;;;24.50;17.65;;;17.00;99.90;;;;;;3631289;39;20602;-39
2021/07/02 07:54:51;;;;;;;21.33;15.05;;;17.30;99.90;;;;;;3640748;39;20669;-39
2021/07/02 07:57:30;;;;;;;23.38;17.52;;;17.40;99.90;;;;;;3630834;39;20598;-39
2021/07/02 08:00:11;;;;;;;24.98;14.77;;;17.40;99.90;;;;;;3619044;39;20615;-40
2021/07/02 08:02:52;;;;;;;26.10;16.85;;;17.50;99.90;;;;;;3630814;39;21011;-39
2021/07/02 08:05:31;;;;;;;22.35;16.73;;;17.60;99.90;;;;;;3627610;39;20659;-38
2021/07/02 08:08:13;;;;;;;21.63;17.83;;;17.70;99.90;;;;;;3630924;39;20598;-37
2021/07/02 08:10:53;;;;;;;25.00;16.42;;;17.80;99.90;;;;;;3650129;39;20950;-39
2021/07/02 08:13:33;;;;;;;23.08;17.50;;;17.50;99.90;;;;;;3628904;39;20696;-42
2021/07/02 08:16:12;;;;;;;19.17;15.38;;;17.50;99.90;;;;;;3630830;39;20938;-38
2021/07/02 08:18:52;;;;;;;28.67;16.42;;;17.30;99.90;;;;;;3630582;39;20602;-38
2021/07/02 08:21:32;;;;;;;24.80;16.42;;;17.40;99.90;;;;;;3630792;39;20618;-38
2021/07/02 08:24:12;;;;;;;20.45;14.98;;;17.30;99.90;;;;;;3631103;39;20695;-38
2021/07/02 08:26:56;;;;;;;21.55;14.73;;;17.30;99.90;;;;;;3630482;39;20652;-39
2021/07/02 08:29:36;;;;;;;19.30;14.55;;;17.40;99.90;;;;;;3641192;39;20666;-39
2021/07/02 08:32:16;;;;;;;19.20;14.85;;;17.60;99.90;;;;;;3641215;39;20608;-39
2021/07/02 08:34:56;;;;;;;14.90;13.02;;;17.50;99.90;;;;;;3651516;39;20622;-38
2021/07/02 08:37:35;;;;;;;20.60;13.40;;;17.60;99.90;;;;;;3641518;39;20940;-36
2021/07/02 08:40:16;;;;;;;18.70;13.80;;;17.90;99.90;;;;;;3631225;39;20598;-40
2021/07/02 08:42:55;;;;;;;16.40;12.00;;;18.30;99.90;;;;;;3631689;39;20974;-38
2021/07/02 08:45:37;;;;;;;15.38;13.30;;;18.30;99.90;;;;;;3641043;39;20593;-38
2021/07/02 08:48:19;;;;;;;14.40;11.95;;;18.40;99.90;;;;;;3642107;39;20601;-37
2021/07/02 08:51:00;;;;;;;15.65;11.40;;;18.50;99.90;;;;;;3642245;39;20597;-38
2021/07/02 08:53:40;;;;;;;15.02;10.88;;;18.20;99.90;;;;;;3639220;39;21016;-39
2021/07/02 08:56:20;;;;;;;13.02;11.20;;;18.20;99.90;;;;;;3640746;39;20604;-39
2021/07/02 08:59:00;;;;;;;12.85;11.27;;;18.70;99.90;;;;;;3641719;39;20612;-39
2021/07/02 09:01:42;;;;;;;19.55;12.10;;;18.90;99.90;;;;;;3630779;39;20594;-39
2021/07/02 09:04:26;;;;;;;17.70;11.82;;;19.20;99.90;;;;;;3650028;39;20619;-38
2021/07/02 09:07:09;;;;;;;18.92;12.20;;;19.20;99.90;;;;;;3630514;39;20598;-40
2021/07/02 09:09:54;;;;;;;20.42;11.07;;;19.00;99.90;;;;;;3640369;39;20589;-37
2021/07/02 09:12:35;;;;;;;15.63;11.98;;;18.90;99.90;;;;;;3629185;39;20570;-41
2021/07/02 09:15:15;;;;;;;14.75;10.15;;;18.80;99.90;;;;;;3655691;39;20686;-37
2021/07/02 09:17:57;;;;;;;13.73;11.77;;;18.40;99.90;;;;;;3640837;39;20604;-39
2021/07/02 09:20:39;;;;;;;14.10;12.30;;;18.10;99.90;;;;;;3620371;39;20650;-41
2021/07/02 09:23:18;;;;;;;15.13;12.15;;;18.00;99.90;;;;;;3614601;39;20598;-38
2021/07/02 09:25:57;;;;;;;17.35;10.52;;;18.00;99.90;;;;;;3629129;39;20614;-41
2021/07/02 09:28:37;;;;;;;13.98;10.85;;;17.90;99.90;;;;;;3651679;39;20603;-38
2021/07/02 09:31:33;;;;;;;15.85;10.90;;;17.90;99.90;;;;;;3641699;39;20605;-38
2021/07/02 09:34:13;;;;;;;13.13;10.70;;;17.80;99.90;;;;;;3650319;39;20972;-41
2021/07/02 09:36:53;;;;;;;14.38;11.23;;;18.00;99.90;;;;;;3640294;39;20945;-40
2021/07/02 09:39:32;;;;;;;17.13;12.15;;;18.50;99.90;;;;;;3661482;39;20594;-38
2021/07/02 09:42:24;;;;;;;15.43;13.82;;;18.40;99.90;;;;;;3641695;39;20605;-38
2021/07/02 09:45:12;;;;;;;20.48;12.90;;;18.20;99.90;;;;;;3638505;39;20658;-39
2021/07/02 09:47:51;;;;;;;14.13;12.35;;;18.30;99.90;;;;;;3640399;39;20605;-41
2021/07/02 09:50:24;;;;;;;17.13;12.02;;;18.60;99.90;;;;;;3640490;39;20489;-39
2021/07/02 09:52:57;;;;;;;17.63;11.27;;;18.90;99.90;;;;;;3640094;39;20249;-42
2021/07/02 09:55:26;;;;;;;17.73;10.48;;;18.90;99.90;;;;;;3641003;39;20253;-40
2021/07/02 09:58:08;;;;;;;13.77;11.02;;;18.60;99.90;;;;;;3640201;39;20231;-39
2021/07/02 10:00:40;;;;;;;13.32;7.95;;;18.70;99.90;;;;;;3638139;39;20243;-39
2021/07/02 10:03:09;;;;;;;10.38;6.70;;;18.90;99.90;;;;;;3637257;39;20590;-39
2021/07/02 10:05:51;;;;;;;8.30;6.15;;;18.60;99.90;;;;;;3635782;39;20598;-39
2021/07/02 10:08:19;;;;;;;7.57;6.32;;;18.50;99.90;;;;;;3630724;39;20245;-37
2021/07/02 10:10:46;;;;;;;12.35;6.82;;;18.20;99.90;;;;;;3635312;39;20242;-40
2021/07/02 10:13:14;;;;;;;9.43;7.35;;;18.30;99.90;;;;;;3633193;39;20235;-38
2021/07/02 10:15:43;;;;;;;9.93;7.57;;;18.40;99.90;;;;;;3636188;39;20275;-38
2021/07/02 10:18:16;;;;;;;13.05;7.68;;;18.80;99.90;;;;;;3630784;39;20396;-38
2021/07/02 10:20:45;;;;;;;10.25;7.38;;;18.90;99.90;;;;;;3633491;39;20341;-38
2021/07/02 10:23:16;;;;;;;10.52;6.63;;;18.60;99.90;;;;;;3636591;39;20646;-40
2021/07/02 10:25:46;;;;;;;9.13;8.07;;;18.80;99.90;;;;;;3635867;39;20227;-39
2021/07/02 10:28:13;;;;;;;11.65;7.70;;;18.90;99.90;;;;;;3634176;39;20254;-40
2021/07/02 10:30:42;;;;;;;7.75;7.05;;;18.90;99.90;;;;;;3630545;39;20233;-39
2021/07/02 10:33:11;;;;;;;8.40;7.20;;;19.00;99.90;;;;;;3632092;39;20227;-38
2021/07/02 10:35:44;;;;;;;11.32;8.98;;;19.00;99.90;;;;;;3635390;39;20251;-41
2021/07/02 10:38:12;;;;;;;9.18;7.95;;;18.90;99.90;;;;;;3636852;39;20455;-39
2021/07/02 10:40:41;;;;;;;17.50;13.65;;;19.10;99.90;;;;;;3637907;39;20240;-39
2021/07/02 10:43:11;;;;;;;14.25;10.73;;;19.20;99.90;;;;;;3638336;39;20257;-39
2021/07/02 10:45:40;;;;;;;13.05;9.18;;;19.40;99.90;;;;;;3677397;22;20232;-80
2021/07/02 10:48:07;;;;;;;12.15;10.88;;;19.20;99.90;;;;;;3664404;22;20252;-86
2021/07/02 10:50:41;;;;;;;13.15;10.38;;;19.20;99.90;;;;;;3625205;39;20233;-83
2021/07/02 10:53:29;;;;;;;15.90;11.95;;;19.10;99.90;;;;;;3611779;39;20265;-82
2021/07/02 10:55:57;;;;;;;16.15;11.05;;;18.90;99.90;;;;;;3620148;39;20228;-83
2021/07/02 10:58:45;;;;;;;14.57;9.77;;;18.80;99.90;;;;;;3615774;39;20225;-82
2021/07/02 11:01:13;;;;;;;17.00;10.65;;;18.80;99.90;;;;;;3612889;39;20245;-83
2021/07/02 11:03:40;;;;;;;13.60;10.35;;;19.10;99.90;;;;;;3698426;22;20250;-81
2021/07/02 11:06:40;;;;;;;16.42;10.63;;;19.30;99.90;;;;;;3613195;39;20240;-84
2021/07/02 11:09:09;;;;;;;11.18;9.30;;;19.30;99.90;;;;;;3604750;39;20225;-83
2021/07/02 11:12:09;;;;;;;13.55;9.18;;;19.40;99.90;;;;;;3604927;39;20820;-83
2021/07/02 11:15:10;;;;;;;11.82;10.38;;;19.70;99.90;;;;;;3613248;39;20221;-83
2021/07/02 11:17:38;;;;;;;14.73;9.93;;;20.00;99.90;;;;;;3613288;39;20724;-84
2021/07/02 11:20:28;;;;;;;12.10;9.43;;;20.10;99.90;;;;;;3613487;39;20295;-84
2021/07/02 11:23:16;;;;;;;11.07;8.80;;;20.20;99.90;;;;;;3604549;39;20222;-83
2021/07/02 11:25:49;;;;;;;13.38;8.23;;;20.10;99.90;;;;;;3613129;39;20210;-84
2021/07/02 11:28:19;;;;;;;10.85;9.23;;;19.80;99.90;;;;;;3612847;39;20241;-83
2021/07/02 11:30:48;;;;;;;14.23;10.38;;;19.80;99.90;;;;;;3604465;39;20208;-87
2021/07/02 11:33:17;;;;;;;12.73;9.40;;;19.80;99.90;;;;;;3613155;39;20234;-82
2021/07/02 11:35:46;;;;;;;13.57;11.00;;;19.60;99.90;;;;;;3609346;39;20249;-82
2021/07/02 11:38:16;;;;;;;14.85;10.02;;;19.30;99.90;;;;;;3612358;39;20261;-82
2021/07/02 11:40:47;;;;;;;12.27;10.13;;;19.10;99.90;;;;;;3612542;39;20289;-82
2021/07/02 11:43:15;;;;;;;12.68;10.02;;;19.10;99.90;;;;;;3613026;39;20299;-82
2021/07/02 11:45:44;;;;;;;9.60;8.23;;;19.10;99.90;;;;;;3613133;39;20276;-83
2021/07/02 11:48:28;;;;;;;11.48;10.20;;;18.90;99.90;;;;;;3613204;39;20229;-83
2021/07/02 11:50:58;;;;;;;14.60;10.50;;;18.90;99.90;;;;;;3603023;39;20246;-88
2021/07/02 11:53:35;;;;;;;13.50;10.98;;;18.90;99.90;;;;;;3603026;39;20234;-83
2021/07/02 11:56:03;;;;;;;13.75;10.15;;;19.00;99.90;;;;;;3602914;39;20768;-87
2021/07/02 11:58:32;;;;;;;14.95;10.35;;;19.10;99.90;;;;;;3611281;39;20268;-82
2021/07/02 12:01:00;;;;;;;14.38;10.95;;;19.20;99.90;;;;;;3613215;39;20219;-85
2021/07/02 12:03:27;;;;;;;12.43;10.38;;;19.70;99.90;;;;;;3603802;39;20229;-83
2021/07/02 12:05:56;;;;;;;13.60;10.52;;;20.20;99.90;;;;;;3613094;39;20767;-82
2021/07/02 12:08:25;;;;;;;13.52;9.25;;;20.20;99.90;;;;;;3612702;39;20291;-80
2021/07/02 12:10:59;;;;;;;10.95;9.82;;;20.30;99.90;;;;;;3612194;39;20297;-83
2021/07/02 12:13:27;;;;;;;12.18;9.15;;;19.90;99.90;;;;;;3610288;39;20235;-83
2021/07/02 12:16:07;;;;;;;10.95;9.95;;;19.90;99.90;;;;;;3604428;39;20283;-84
2021/07/02 12:18:35;;;;;;;10.80;9.80;;;20.00;99.90;;;;;;3604100;39;20246;-84
2021/07/02 12:21:05;;;;;;;11.77;8.15;;;20.00;99.90;;;;;;3612945;39;20234;-86
2021/07/02 12:23:34;;;;;;;13.55;9.50;;;19.70;99.90;;;;;;3612706;39;20715;-84
2021/07/02 12:26:18;;;;;;;11.75;10.55;;;19.70;99.90;;;;;;3609114;39;20588;-83
2021/07/02 12:28:55;;;;;;;12.07;10.85;;;20.30;99.90;;;;;;3610979;39;20238;-81
2021/07/02 12:31:23;;;;;;;12.20;9.93;;;20.20;99.90;;;;;;3611838;39;20248;-82
2021/07/02 12:33:50;;;;;;;11.93;10.60;;;20.40;99.90;;;;;;3611931;39;20303;-81
2021/07/02 12:36:17;;;;;;;11.23;10.07;;;20.50;99.90;;;;;;3608360;39;20245;-79
2021/07/02 12:39:09;;;;;;;12.75;10.45;;;20.00;99.90;;;;;;3603437;39;20237;-85
2021/07/02 12:41:44;;;;;;;13.35;10.52;;;19.60;99.90;;;;;;3612201;39;20260;-79
2021/07/02 12:44:15;;;;;;;12.45;9.77;;;19.90;99.90;;;;;;3612353;39;20237;-81
2021/07/02 12:46:43;;;;;;;14.05;10.57;;;19.50;99.90;;;;;;3611670;39;20234;-84
2021/07/02 12:49:27;;;;;;;10.90;9.85;;;19.60;99.90;;;;;;3612107;39;20257;-85
2021/07/02 12:54:50;;;;;;;13.57;11.68;;;19.90;99.90;;;;;;3612213;39;20214;-84
2021/07/02 12:57:27;;;;;;;13.85;12.57;;;20.10;99.90;;;;;;3611787;39;20261;-81
2021/07/02 12:59:56;;;;;;;14.60;10.88;;;20.20;99.90;;;;;;3606266;39;20222;-83
2021/07/02 13:02:27;;;;;;;17.30;10.77;;;20.60;99.90;;;;;;3611962;39;20775;-82
2021/07/02 13:04:55;;;;;;;13.57;10.63;;;20.50;99.90;;;;;;3612293;39;20271;-80
2021/07/02 13:07:22;;;;;;;14.30;12.40;;;20.80;99.90;;;;;;3649780;22;20256;-38
2021/07/02 13:10:04;;;;;;;13.65;11.57;;;21.10;99.90;;;;;;3620116;39;20272;-40
2021/07/02 13:12:33;;;;;;;14.38;11.60;;;21.00;99.90;;;;;;3619199;39;20244;-37
2021/07/02 13:15:09;;;;;;;13.48;11.75;;;20.80;99.90;;;;;;3618921;39;20260;-40
2021/07/02 13:17:44;;;;;;;15.32;12.77;;;20.50;99.90;;;;;;3608915;39;20229;-41
2021/07/02 13:20:12;;;;;;;12.30;10.73;;;20.10;99.90;;;;;;3644074;22;20228;-38
2021/07/02 13:22:40;;;;;;;16.77;11.82;;;20.10;99.90;;;;;;3597925;40;20236;-38
2021/07/02 13:25:08;;;;;;;13.68;12.32;;;20.20;99.90;;;;;;3597592;40;20237;-39
2021/07/02 13:27:37;;;;;;;15.40;13.32;;;20.30;99.90;;;;;;3590815;40;20628;-39